Mc Clure, Virginia
Current Conditions -  °F | °C
As of 4:35 PM on Monday 24 Nov 2014 (Local Time) from KLNP Reporting Station
Scattered Clouds Scattered Clouds  
Wind Chill: 63°   Ceiling: Unl
Heat Index: 63°   Visibility: 10mi
Dew Point: 37°   Wind: 24mph
Humidity: 39%   Direction: 230°SW
Pressure: 29.77"   Gusts: 31mph
Location:  37.082°N, 82.3827°W
Report Text: KLNP 242135Z AUTO 23021G27KT 10SM SCT050 SCT055 17/03 A2977 RMK AO2
Loading
Personal Weather Stations






























Interactive Weather Map New forecast layout! Learn more

10-Day Weather Forecast

Advertisements
Track Severe Weather on mobile